sensor_id;sensor_type;location;lat;lon;timestamp;P1;durP1;ratioP1;P2;durP2;ratioP2
44116;SDS011;29781;49.480;8.512;2023-04-24T00:00:54;2.38;;;1.50;;
44116;SDS011;29781;49.480;8.512;2023-04-24T00:03:24;1.60;;;1.48;;
44116;SDS011;29781;49.480;8.512;2023-04-24T00:05:49;1.75;;;1.40;;
44116;SDS011;29781;49.480;8.512;2023-04-24T00:08:16;3.22;;;1.58;;
44116;SDS011;29781;49.480;8.512;2023-04-24T00:10:41;1.52;;;1.42;;
44116;SDS011;29781;49.480;8.512;2023-04-24T00:13:07;2.65;;;1.70;;
44116;SDS011;29781;49.480;8.512;2023-04-24T00:15:33;5.43;;;1.67;;
44116;SDS011;29781;49.480;8.512;2023-04-24T00:17:58;1.52;;;1.42;;
44116;SDS011;29781;49.480;8.512;2023-04-24T00:20:26;1.48;;;1.38;;
44116;SDS011;29781;49.480;8.512;2023-04-24T00:22:53;2.53;;;1.60;;
44116;SDS011;29781;49.480;8.512;2023-04-24T00:25:18;1.73;;;1.23;;
44116;SDS011;29781;49.480;8.512;2023-04-24T00:27:44;3.03;;;1.63;;
44116;SDS011;29781;49.480;8.512;2023-04-24T00:30:09;2.10;;;1.30;;
44116;SDS011;29781;49.480;8.512;2023-04-24T00:32:35;2.05;;;1.50;;
44116;SDS011;29781;49.480;8.512;2023-04-24T00:35:01;1.83;;;1.25;;
44116;SDS011;29781;49.480;8.512;2023-04-24T00:37:27;1.70;;;1.50;;
44116;SDS011;29781;49.480;8.512;2023-04-24T00:39:52;1.92;;;1.58;;
44116;SDS011;29781;49.480;8.512;2023-04-24T00:42:18;4.53;;;1.58;;
44116;SDS011;29781;49.480;8.512;2023-04-24T00:44:44;2.00;;;1.20;;
44116;SDS011;29781;49.480;8.512;2023-04-24T00:47:10;1.95;;;1.20;;
44116;SDS011;29781;49.480;8.512;2023-04-24T00:49:37;1.95;;;1.30;;
44116;SDS011;29781;49.480;8.512;2023-04-24T00:52:03;2.45;;;1.27;;
44116;SDS011;29781;49.480;8.512;2023-04-24T00:54:32;1.77;;;1.40;;
44116;SDS011;29781;49.480;8.512;2023-04-24T00:56:58;3.72;;;1.45;;
44116;SDS011;29781;49.480;8.512;2023-04-24T00:59:23;3.97;;;1.58;;
44116;SDS011;29781;49.480;8.512;2023-04-24T01:01:49;2.67;;;1.40;;
44116;SDS011;29781;49.480;8.512;2023-04-24T01:04:15;2.88;;;1.80;;
44116;SDS011;29781;49.480;8.512;2023-04-24T01:06:42;3.70;;;1.40;;
44116;SDS011;29781;49.480;8.512;2023-04-24T01:09:09;1.60;;;1.50;;
44116;SDS011;29781;49.480;8.512;2023-04-24T01:11:36;5.82;;;1.33;;
44116;SDS011;29781;49.480;8.512;2023-04-24T01:14:02;3.00;;;1.42;;
44116;SDS011;29781;49.480;8.512;2023-04-24T01:16:28;2.65;;;1.70;;
44116;SDS011;29781;49.480;8.512;2023-04-24T01:18:53;4.32;;;1.65;;
44116;SDS011;29781;49.480;8.512;2023-04-24T01:21:19;1.70;;;1.35;;
44116;SDS011;29781;49.480;8.512;2023-04-24T01:23:46;2.13;;;1.38;;
44116;SDS011;29781;49.480;8.512;2023-04-24T01:26:13;1.67;;;1.08;;
44116;SDS011;29781;49.480;8.512;2023-04-24T01:28:42;2.17;;;1.25;;
44116;SDS011;29781;49.480;8.512;2023-04-24T01:31:07;1.52;;;1.20;;
44116;SDS011;29781;49.480;8.512;2023-04-24T01:33:33;5.35;;;1.33;;
44116;SDS011;29781;49.480;8.512;2023-04-24T01:35:59;6.00;;;1.30;;
44116;SDS011;29781;49.480;8.512;2023-04-24T01:38:25;3.72;;;1.60;;
44116;SDS011;29781;49.480;8.512;2023-04-24T01:40:50;2.45;;;1.30;;
44116;SDS011;29781;49.480;8.512;2023-04-24T01:43:16;3.38;;;1.52;;
44116;SDS011;29781;49.480;8.512;2023-04-24T01:45:42;2.70;;;1.52;;
44116;SDS011;29781;49.480;8.512;2023-04-24T01:48:08;1.25;;;1.10;;
44116;SDS011;29781;49.480;8.512;2023-04-24T01:50:34;2.75;;;1.33;;
44116;SDS011;29781;49.480;8.512;2023-04-24T01:52:59;2.05;;;1.30;;
44116;SDS011;29781;49.480;8.512;2023-04-24T01:55:25;3.28;;;1.40;;
44116;SDS011;29781;49.480;8.512;2023-04-24T01:57:52;2.33;;;1.30;;
44116;SDS011;29781;49.480;8.512;2023-04-24T02:00:20;1.30;;;1.10;;
44116;SDS011;29781;49.480;8.512;2023-04-24T02:02:45;2.08;;;1.30;;
44116;SDS011;29781;49.480;8.512;2023-04-24T02:05:11;1.50;;;1.20;;
44116;SDS011;29781;49.480;8.512;2023-04-24T02:07:36;1.92;;;1.25;;
44116;SDS011;29781;49.480;8.512;2023-04-24T02:10:02;2.25;;;1.45;;
44116;SDS011;29781;49.480;8.512;2023-04-24T02:12:29;1.35;;;1.25;;
44116;SDS011;29781;49.480;8.512;2023-04-24T02:14:54;1.77;;;1.20;;
44116;SDS011;29781;49.480;8.512;2023-04-24T02:17:20;3.13;;;1.52;;
44116;SDS011;29781;49.480;8.512;2023-04-24T02:19:46;2.65;;;1.00;;
44116;SDS011;29781;49.480;8.512;2023-04-24T02:22:11;2.67;;;1.30;;
44116;SDS011;29781;49.480;8.512;2023-04-24T02:24:37;2.70;;;1.40;;
44116;SDS011;29781;49.480;8.512;2023-04-24T02:27:03;2.78;;;1.10;;
44116;SDS011;29781;49.480;8.512;2023-04-24T02:29:29;3.80;;;1.20;;
44116;SDS011;29781;49.480;8.512;2023-04-24T02:31:55;2.05;;;1.23;;
44116;SDS011;29781;49.480;8.512;2023-04-24T02:34:20;3.75;;;1.30;;
44116;SDS011;29781;49.480;8.512;2023-04-24T02:36:46;1.70;;;1.17;;
44116;SDS011;29781;49.480;8.512;2023-04-24T02:39:11;3.50;;;1.35;;
44116;SDS011;29781;49.480;8.512;2023-04-24T02:41:38;2.08;;;1.42;;
44116;SDS011;29781;49.480;8.512;2023-04-24T02:44:03;1.90;;;1.08;;
44116;SDS011;29781;49.480;8.512;2023-04-24T02:46:29;2.92;;;1.40;;
44116;SDS011;29781;49.480;8.512;2023-04-24T02:48:55;2.67;;;1.30;;
44116;SDS011;29781;49.480;8.512;2023-04-24T02:51:20;2.22;;;1.20;;
44116;SDS011;29781;49.480;8.512;2023-04-24T02:53:46;3.17;;;1.27;;
44116;SDS011;29781;49.480;8.512;2023-04-24T02:56:11;3.63;;;1.30;;
44116;SDS011;29781;49.480;8.512;2023-04-24T02:58:39;1.95;;;1.33;;
44116;SDS011;29781;49.480;8.512;2023-04-24T03:01:05;2.90;;;1.15;;
44116;SDS011;29781;49.480;8.512;2023-04-24T03:03:31;2.05;;;0.90;;
44116;SDS011;29781;49.480;8.512;2023-04-24T03:05:56;2.75;;;1.00;;
44116;SDS011;29781;49.480;8.512;2023-04-24T03:08:22;1.85;;;0.98;;
44116;SDS011;29781;49.480;8.512;2023-04-24T03:10:48;1.52;;;1.10;;
44116;SDS011;29781;49.480;8.512;2023-04-24T03:13:13;3.13;;;1.20;;
44116;SDS011;29781;49.480;8.512;2023-04-24T03:15:40;1.63;;;0.98;;
44116;SDS011;29781;49.480;8.512;2023-04-24T03:18:05;1.50;;;1.40;;
44116;SDS011;29781;49.480;8.512;2023-04-24T03:20:31;1.73;;;1.40;;
44116;SDS011;29781;49.480;8.512;2023-04-24T03:22:56;3.50;;;2.00;;
44116;SDS011;29781;49.480;8.512;2023-04-24T03:25:22;5.00;;;1.63;;
44116;SDS011;29781;49.480;8.512;2023-04-24T03:27:47;3.25;;;1.60;;
44116;SDS011;29781;49.480;8.512;2023-04-24T03:30:13;2.50;;;1.70;;
44116;SDS011;29781;49.480;8.512;2023-04-24T03:32:39;2.25;;;1.80;;
44116;SDS011;29781;49.480;8.512;2023-04-24T03:35:05;4.03;;;1.70;;
44116;SDS011;29781;49.480;8.512;2023-04-24T03:37:32;3.47;;;1.60;;
44116;SDS011;29781;49.480;8.512;2023-04-24T03:39:58;4.32;;;1.63;;
44116;SDS011;29781;49.480;8.512;2023-04-24T03:42:23;2.10;;;1.65;;
44116;SDS011;29781;49.480;8.512;2023-04-24T03:44:49;3.75;;;1.58;;
44116;SDS011;29781;49.480;8.512;2023-04-24T03:47:14;1.90;;;1.45;;
44116;SDS011;29781;49.480;8.512;2023-04-24T03:49:40;1.92;;;1.45;;
44116;SDS011;29781;49.480;8.512;2023-04-24T03:52:05;1.70;;;1.48;;
44116;SDS011;29781;49.480;8.512;2023-04-24T03:54:31;3.33;;;1.60;;
44116;SDS011;29781;49.480;8.512;2023-04-24T03:56:56;1.70;;;1.60;;
44116;SDS011;29781;49.480;8.512;2023-04-24T03:59:22;1.90;;;1.42;;
44116;SDS011;29781;49.480;8.512;2023-04-24T04:01:47;1.63;;;1.42;;
44116;SDS011;29781;49.480;8.512;2023-04-24T04:04:13;2.45;;;1.65;;
44116;SDS011;29781;49.480;8.512;2023-04-24T04:06:39;1.45;;;1.35;;
44116;SDS011;29781;49.480;8.512;2023-04-24T04:09:04;1.70;;;1.60;;
44116;SDS011;29781;49.480;8.512;2023-04-24T04:11:30;2.67;;;1.52;;
44116;SDS011;29781;49.480;8.512;2023-04-24T04:13:56;1.45;;;1.35;;
44116;SDS011;29781;49.480;8.512;2023-04-24T04:16:21;2.63;;;1.73;;
44116;SDS011;29781;49.480;8.512;2023-04-24T04:18:48;1.60;;;1.50;;
44116;SDS011;29781;49.480;8.512;2023-04-24T04:21:13;2.38;;;1.90;;
44116;SDS011;29781;49.480;8.512;2023-04-24T04:23:39;1.55;;;1.45;;
44116;SDS011;29781;49.480;8.512;2023-04-24T04:26:04;2.15;;;1.70;;
44116;SDS011;29781;49.480;8.512;2023-04-24T04:28:30;2.92;;;2.00;;
44116;SDS011;29781;49.480;8.512;2023-04-24T04:30:56;2.13;;;2.00;;
44116;SDS011;29781;49.480;8.512;2023-04-24T04:33:22;4.18;;;2.20;;
44116;SDS011;29781;49.480;8.512;2023-04-24T04:35:48;2.53;;;2.33;;
44116;SDS011;29781;49.480;8.512;2023-04-24T04:38:15;4.40;;;2.10;;
44116;SDS011;29781;49.480;8.512;2023-04-24T04:40:41;2.75;;;2.30;;
44116;SDS011;29781;49.480;8.512;2023-04-24T04:43:07;2.58;;;2.05;;
44116;SDS011;29781;49.480;8.512;2023-04-24T04:45:33;3.17;;;2.47;;
44116;SDS011;29781;49.480;8.512;2023-04-24T04:47:59;3.13;;;2.25;;
44116;SDS011;29781;49.480;8.512;2023-04-24T04:50:26;3.85;;;2.30;;
44116;SDS011;29781;49.480;8.512;2023-04-24T04:52:52;2.83;;;2.50;;
44116;SDS011;29781;49.480;8.512;2023-04-24T04:55:18;2.50;;;2.20;;
44116;SDS011;29781;49.480;8.512;2023-04-24T04:57:44;2.35;;;2.15;;
44116;SDS011;29781;49.480;8.512;2023-04-24T05:00:11;3.20;;;2.90;;
44116;SDS011;29781;49.480;8.512;2023-04-24T05:02:37;3.47;;;2.38;;
44116;SDS011;29781;49.480;8.512;2023-04-24T05:05:03;3.13;;;2.80;;
44116;SDS011;29781;49.480;8.512;2023-04-24T05:07:28;2.92;;;2.40;;
44116;SDS011;29781;49.480;8.512;2023-04-24T05:09:54;2.75;;;2.30;;
44116;SDS011;29781;49.480;8.512;2023-04-24T05:12:20;3.03;;;2.75;;
44116;SDS011;29781;49.480;8.512;2023-04-24T05:14:45;3.78;;;2.67;;
44116;SDS011;29781;49.480;8.512;2023-04-24T05:17:11;3.35;;;2.83;;
44116;SDS011;29781;49.480;8.512;2023-04-24T05:19:36;3.10;;;2.88;;
44116;SDS011;29781;49.480;8.512;2023-04-24T05:22:03;4.75;;;2.92;;
44116;SDS011;29781;49.480;8.512;2023-04-24T05:24:31;4.47;;;2.90;;
44116;SDS011;29781;49.480;8.512;2023-04-24T05:27:01;3.00;;;2.80;;
44116;SDS011;29781;49.480;8.512;2023-04-24T05:29:27;3.63;;;3.00;;
44116;SDS011;29781;49.480;8.512;2023-04-24T05:31:55;7.50;;;3.00;;
44116;SDS011;29781;49.480;8.512;2023-04-24T05:34:21;4.57;;;3.60;;
44116;SDS011;29781;49.480;8.512;2023-04-24T05:36:46;3.83;;;2.53;;
44116;SDS011;29781;49.480;8.512;2023-04-24T05:39:12;4.00;;;3.10;;
44116;SDS011;29781;49.480;8.512;2023-04-24T05:41:38;3.60;;;2.97;;
44116;SDS011;29781;49.480;8.512;2023-04-24T05:44:03;4.95;;;3.15;;
44116;SDS011;29781;49.480;8.512;2023-04-24T05:46:29;6.50;;;3.70;;
44116;SDS011;29781;49.480;8.512;2023-04-24T05:48:54;5.05;;;3.88;;
44116;SDS011;29781;49.480;8.512;2023-04-24T05:51:20;5.65;;;3.45;;
44116;SDS011;29781;49.480;8.512;2023-04-24T05:53:45;4.32;;;3.90;;
44116;SDS011;29781;49.480;8.512;2023-04-24T05:56:11;4.55;;;3.97;;
44116;SDS011;29781;49.480;8.512;2023-04-24T05:58:36;4.68;;;3.58;;
44116;SDS011;29781;49.480;8.512;2023-04-24T06:01:02;5.30;;;4.13;;
44116;SDS011;29781;49.480;8.512;2023-04-24T06:03:28;5.40;;;4.00;;
44116;SDS011;29781;49.480;8.512;2023-04-24T06:05:54;3.72;;;3.42;;
44116;SDS011;29781;49.480;8.512;2023-04-24T06:08:19;5.95;;;3.50;;
44116;SDS011;29781;49.480;8.512;2023-04-24T06:10:45;5.75;;;3.55;;
44116;SDS011;29781;49.480;8.512;2023-04-24T06:13:10;5.82;;;4.03;;
44116;SDS011;29781;49.480;8.512;2023-04-24T06:15:36;4.82;;;3.55;;
44116;SDS011;29781;49.480;8.512;2023-04-24T06:18:02;3.90;;;3.60;;
44116;SDS011;29781;49.480;8.512;2023-04-24T06:20:28;4.68;;;3.85;;
44116;SDS011;29781;49.480;8.512;2023-04-24T06:22:53;4.43;;;3.67;;
44116;SDS011;29781;49.480;8.512;2023-04-24T06:25:19;6.05;;;3.65;;
44116;SDS011;29781;49.480;8.512;2023-04-24T06:27:45;5.97;;;3.95;;
44116;SDS011;29781;49.480;8.512;2023-04-24T06:30:10;4.32;;;3.92;;
44116;SDS011;29781;49.480;8.512;2023-04-24T06:32:36;7.40;;;3.75;;
44116;SDS011;29781;49.480;8.512;2023-04-24T06:35:02;4.95;;;3.90;;
44116;SDS011;29781;49.480;8.512;2023-04-24T06:37:27;5.75;;;3.72;;
44116;SDS011;29781;49.480;8.512;2023-04-24T06:39:53;5.00;;;3.47;;
44116;SDS011;29781;49.480;8.512;2023-04-24T06:42:19;5.22;;;3.40;;
44116;SDS011;29781;49.480;8.512;2023-04-24T06:44:49;3.97;;;3.42;;
44116;SDS011;29781;49.480;8.512;2023-04-24T06:47:15;4.60;;;2.97;;
44116;SDS011;29781;49.480;8.512;2023-04-24T06:49:41;2.65;;;2.00;;
44116;SDS011;29781;49.480;8.512;2023-04-24T06:52:07;2.10;;;2.00;;
44116;SDS011;29781;49.480;8.512;2023-04-24T06:54:33;3.33;;;2.00;;
44116;SDS011;29781;49.480;8.512;2023-04-24T06:56:59;1.80;;;1.70;;
44116;SDS011;29781;49.480;8.512;2023-04-24T06:59:28;2.75;;;1.98;;
44116;SDS011;29781;49.480;8.512;2023-04-24T07:01:54;1.85;;;1.55;;
44116;SDS011;29781;49.480;8.512;2023-04-24T07:04:20;2.67;;;1.90;;
44116;SDS011;29781;49.480;8.512;2023-04-24T07:06:46;2.00;;;1.80;;
44116;SDS011;29781;49.480;8.512;2023-04-24T07:09:12;1.90;;;1.70;;
44116;SDS011;29781;49.480;8.512;2023-04-24T07:11:44;3.45;;;1.60;;
44116;SDS011;29781;49.480;8.512;2023-04-24T07:14:10;2.50;;;1.42;;
44116;SDS011;29781;49.480;8.512;2023-04-24T07:16:36;1.73;;;1.63;;
44116;SDS011;29781;49.480;8.512;2023-04-24T07:19:01;2.35;;;1.48;;
44116;SDS011;29781;49.480;8.512;2023-04-24T07:21:27;3.38;;;1.30;;
44116;SDS011;29781;49.480;8.512;2023-04-24T07:23:53;2.08;;;1.40;;
44116;SDS011;29781;49.480;8.512;2023-04-24T07:26:19;2.58;;;1.40;;
44116;SDS011;29781;49.480;8.512;2023-04-24T07:28:45;2.50;;;1.55;;
44116;SDS011;29781;49.480;8.512;2023-04-24T07:31:11;1.52;;;1.42;;
44116;SDS011;29781;49.480;8.512;2023-04-24T07:33:36;2.42;;;1.77;;
44116;SDS011;29781;49.480;8.512;2023-04-24T07:36:02;2.80;;;1.42;;
44116;SDS011;29781;49.480;8.512;2023-04-24T07:38:31;2.75;;;1.50;;
44116;SDS011;29781;49.480;8.512;2023-04-24T07:40:57;2.17;;;1.60;;
44116;SDS011;29781;49.480;8.512;2023-04-24T07:43:23;1.60;;;1.50;;
44116;SDS011;29781;49.480;8.512;2023-04-24T07:45:49;1.67;;;1.58;;
44116;SDS011;29781;49.480;8.512;2023-04-24T07:48:15;2.50;;;1.90;;
44116;SDS011;29781;49.480;8.512;2023-04-24T07:50:42;2.63;;;1.70;;
44116;SDS011;29781;49.480;8.512;2023-04-24T07:53:08;3.40;;;1.70;;
44116;SDS011;29781;49.480;8.512;2023-04-24T07:55:34;2.85;;;2.20;;
44116;SDS011;29781;49.480;8.512;2023-04-24T07:57:59;2.53;;;1.70;;
44116;SDS011;29781;49.480;8.512;2023-04-24T08:00:25;3.00;;;1.98;;
44116;SDS011;29781;49.480;8.512;2023-04-24T08:02:51;2.25;;;1.77;;
44116;SDS011;29781;49.480;8.512;2023-04-24T08:05:16;3.10;;;2.00;;
44116;SDS011;29781;49.480;8.512;2023-04-24T08:07:42;5.97;;;1.92;;
44116;SDS011;29781;49.480;8.512;2023-04-24T08:10:09;2.60;;;1.70;;
44116;SDS011;29781;49.480;8.512;2023-04-24T08:12:35;2.17;;;1.40;;
44116;SDS011;29781;49.480;8.512;2023-04-24T08:15:01;3.33;;;1.70;;
44116;SDS011;29781;49.480;8.512;2023-04-24T08:17:27;2.45;;;1.60;;
44116;SDS011;29781;49.480;8.512;2023-04-24T08:19:52;2.08;;;1.55;;
44116;SDS011;29781;49.480;8.512;2023-04-24T08:22:24;4.18;;;1.83;;
44116;SDS011;29781;49.480;8.512;2023-04-24T08:24:49;2.08;;;1.42;;
44116;SDS011;29781;49.480;8.512;2023-04-24T08:27:15;1.95;;;1.80;;
44116;SDS011;29781;49.480;8.512;2023-04-24T08:29:40;3.15;;;1.50;;
44116;SDS011;29781;49.480;8.512;2023-04-24T08:32:06;1.92;;;1.60;;
44116;SDS011;29781;49.480;8.512;2023-04-24T08:34:31;3.63;;;2.08;;
44116;SDS011;29781;49.480;8.512;2023-04-24T08:36:57;2.67;;;1.77;;
44116;SDS011;29781;49.480;8.512;2023-04-24T08:39:22;2.10;;;1.90;;
44116;SDS011;29781;49.480;8.512;2023-04-24T08:41:48;1.70;;;1.60;;
44116;SDS011;29781;49.480;8.512;2023-04-24T08:44:15;3.35;;;2.10;;
44116;SDS011;29781;49.480;8.512;2023-04-24T08:46:45;2.05;;;1.95;;
44116;SDS011;29781;49.480;8.512;2023-04-24T08:49:13;2.85;;;1.50;;
44116;SDS011;29781;49.480;8.512;2023-04-24T08:51:41;2.10;;;2.00;;
44116;SDS011;29781;49.480;8.512;2023-04-24T08:54:06;2.83;;;2.10;;
44116;SDS011;29781;49.480;8.512;2023-04-24T08:56:33;2.85;;;2.10;;
44116;SDS011;29781;49.480;8.512;2023-04-24T08:59:02;2.40;;;2.20;;
44116;SDS011;29781;49.480;8.512;2023-04-24T09:01:28;3.17;;;2.20;;
44116;SDS011;29781;49.480;8.512;2023-04-24T09:03:56;2.60;;;1.90;;
44116;SDS011;29781;49.480;8.512;2023-04-24T09:06:22;2.83;;;2.00;;
44116;SDS011;29781;49.480;8.512;2023-04-24T09:08:48;3.35;;;2.25;;
44116;SDS011;29781;49.480;8.512;2023-04-24T09:11:18;2.57;;;1.60;;
44116;SDS011;29781;49.480;8.512;2023-04-24T09:13:44;2.78;;;1.95;;
44116;SDS011;29781;49.480;8.512;2023-04-24T09:16:11;2.70;;;2.40;;
44116;SDS011;29781;49.480;8.512;2023-04-24T09:18:36;3.53;;;2.17;;
44116;SDS011;29781;49.480;8.512;2023-04-24T09:21:03;3.47;;;2.50;;
44116;SDS011;29781;49.480;8.512;2023-04-24T09:23:32;4.05;;;2.38;;
44116;SDS011;29781;49.480;8.512;2023-04-24T09:25:58;2.30;;;2.10;;
44116;SDS011;29781;49.480;8.512;2023-04-24T09:28:26;5.30;;;2.30;;
44116;SDS011;29781;49.480;8.512;2023-04-24T09:33:29;4.45;;;2.25;;
44116;SDS011;29781;49.480;8.512;2023-04-24T09:35:55;2.00;;;1.90;;
44116;SDS011;29781;49.480;8.512;2023-04-24T09:38:30;3.08;;;1.98;;
44116;SDS011;29781;49.480;8.512;2023-04-24T09:41:00;2.30;;;2.10;;
44116;SDS011;29781;49.480;8.512;2023-04-24T09:43:30;4.32;;;2.28;;
44116;SDS011;29781;49.480;8.512;2023-04-24T09:45:56;7.03;;;2.20;;
44116;SDS011;29781;49.480;8.512;2023-04-24T09:48:30;3.50;;;2.15;;
44116;SDS011;29781;49.480;8.512;2023-04-24T09:50:56;4.43;;;2.60;;
44116;SDS011;29781;49.480;8.512;2023-04-24T09:53:25;5.38;;;2.42;;
44116;SDS011;29781;49.480;8.512;2023-04-24T09:55:51;3.97;;;2.50;;
44116;SDS011;29781;49.480;8.512;2023-04-24T09:58:18;3.38;;;2.55;;
44116;SDS011;29781;49.480;8.512;2023-04-24T10:00:49;2.70;;;2.50;;
44116;SDS011;29781;49.480;8.512;2023-04-24T10:03:15;3.33;;;2.75;;
44116;SDS011;29781;49.480;8.512;2023-04-24T10:05:44;5.05;;;2.40;;
44116;SDS011;29781;49.480;8.512;2023-04-24T10:08:12;2.38;;;2.17;;
44116;SDS011;29781;49.480;8.512;2023-04-24T10:10:39;2.58;;;2.38;;
44116;SDS011;29781;49.480;8.512;2023-04-24T10:13:07;2.15;;;2.05;;
44116;SDS011;29781;49.480;8.512;2023-04-24T10:15:35;3.92;;;2.28;;
44116;SDS011;29781;49.480;8.512;2023-04-24T10:18:00;2.33;;;1.70;;
44116;SDS011;29781;49.480;8.512;2023-04-24T10:20:29;2.15;;;1.92;;
44116;SDS011;29781;49.480;8.512;2023-04-24T10:22:56;7.32;;;1.95;;
44116;SDS011;29781;49.480;8.512;2023-04-24T10:25:23;2.95;;;2.15;;
44116;SDS011;29781;49.480;8.512;2023-04-24T10:27:52;2.22;;;2.00;;
44116;SDS011;29781;49.480;8.512;2023-04-24T10:32:48;3.78;;;1.60;;
44116;SDS011;29781;49.480;8.512;2023-04-24T10:35:14;3.97;;;1.50;;
44116;SDS011;29781;49.480;8.512;2023-04-24T10:37:41;5.03;;;1.90;;
44116;SDS011;29781;49.480;8.512;2023-04-24T10:40:16;3.08;;;1.73;;
44116;SDS011;29781;49.480;8.512;2023-04-24T10:42:43;2.50;;;1.67;;
44116;SDS011;29781;49.480;8.512;2023-04-24T10:45:19;5.80;;;2.38;;
44116;SDS011;29781;49.480;8.512;2023-04-24T10:47:52;2.33;;;1.92;;
44116;SDS011;29781;49.480;8.512;2023-04-24T10:50:21;2.20;;;1.67;;
44116;SDS011;29781;49.480;8.512;2023-04-24T10:52:47;2.10;;;2.00;;
44116;SDS011;29781;49.480;8.512;2023-04-24T10:55:13;2.13;;;1.80;;
44116;SDS011;29781;49.480;8.512;2023-04-24T10:57:40;2.33;;;1.80;;
44116;SDS011;29781;49.480;8.512;2023-04-24T11:00:26;2.50;;;2.30;;
44116;SDS011;29781;49.480;8.512;2023-04-24T11:02:52;2.50;;;2.30;;
44116;SDS011;29781;49.480;8.512;2023-04-24T11:05:18;2.92;;;2.17;;
44116;SDS011;29781;49.480;8.512;2023-04-24T11:08:09;2.95;;;2.15;;
44116;SDS011;29781;49.480;8.512;2023-04-24T11:10:40;2.90;;;2.60;;
44116;SDS011;29781;49.480;8.512;2023-04-24T11:13:15;3.10;;;1.90;;
44116;SDS011;29781;49.480;8.512;2023-04-24T11:15:42;3.53;;;2.42;;
44116;SDS011;29781;49.480;8.512;2023-04-24T11:18:12;4.78;;;2.42;;
44116;SDS011;29781;49.480;8.512;2023-04-24T11:20:44;3.28;;;2.90;;
44116;SDS011;29781;49.480;8.512;2023-04-24T11:23:12;2.83;;;2.63;;
44116;SDS011;29781;49.480;8.512;2023-04-24T11:25:38;3.15;;;2.65;;
44116;SDS011;29781;49.480;8.512;2023-04-24T11:28:04;4.20;;;3.10;;
44116;SDS011;29781;49.480;8.512;2023-04-24T11:30:31;7.00;;;3.05;;
44116;SDS011;29781;49.480;8.512;2023-04-24T11:33:02;3.00;;;2.80;;
44116;SDS011;29781;49.480;8.512;2023-04-24T11:35:29;3.90;;;3.08;;
44116;SDS011;29781;49.480;8.512;2023-04-24T11:38:03;5.07;;;3.15;;
44116;SDS011;29781;49.480;8.512;2023-04-24T11:40:30;3.95;;;3.08;;
44116;SDS011;29781;49.480;8.512;2023-04-24T11:42:55;4.25;;;3.45;;
44116;SDS011;29781;49.480;8.512;2023-04-24T11:45:22;3.50;;;2.95;;
44116;SDS011;29781;49.480;8.512;2023-04-24T11:47:49;4.47;;;3.00;;
44116;SDS011;29781;49.480;8.512;2023-04-24T11:50:15;6.38;;;3.55;;
44116;SDS011;29781;49.480;8.512;2023-04-24T11:52:43;4.70;;;2.90;;
44116;SDS011;29781;49.480;8.512;2023-04-24T11:57:39;5.40;;;3.10;;
44116;SDS011;29781;49.480;8.512;2023-04-24T12:00:09;3.87;;;3.23;;
44116;SDS011;29781;49.480;8.512;2023-04-24T12:02:40;5.03;;;3.53;;
44116;SDS011;29781;49.480;8.512;2023-04-24T12:05:06;3.90;;;3.60;;
44116;SDS011;29781;49.480;8.512;2023-04-24T12:07:31;5.25;;;3.63;;
44116;SDS011;29781;49.480;8.512;2023-04-24T12:10:08;4.68;;;3.60;;
44116;SDS011;29781;49.480;8.512;2023-04-24T12:12:34;4.43;;;3.53;;
44116;SDS011;29781;49.480;8.512;2023-04-24T12:15:00;5.70;;;3.30;;
44116;SDS011;29781;49.480;8.512;2023-04-24T12:17:31;3.65;;;3.22;;
44116;SDS011;29781;49.480;8.512;2023-04-24T12:19:58;5.05;;;3.50;;
44116;SDS011;29781;49.480;8.512;2023-04-24T12:22:47;4.38;;;2.70;;
44116;SDS011;29781;49.480;8.512;2023-04-24T12:25:19;3.43;;;3.00;;
44116;SDS011;29781;49.480;8.512;2023-04-24T12:27:46;4.18;;;3.25;;
44116;SDS011;29781;49.480;8.512;2023-04-24T12:30:17;5.53;;;3.47;;
44116;SDS011;29781;49.480;8.512;2023-04-24T12:32:44;5.28;;;3.20;;
44116;SDS011;29781;49.480;8.512;2023-04-24T12:35:18;5.65;;;3.05;;
44116;SDS011;29781;49.480;8.512;2023-04-24T12:37:45;9.60;;;3.40;;
44116;SDS011;29781;49.480;8.512;2023-04-24T12:40:11;4.93;;;3.58;;
44116;SDS011;29781;49.480;8.512;2023-04-24T12:42:45;3.88;;;3.22;;
44116;SDS011;29781;49.480;8.512;2023-04-24T12:45:12;12.68;;;3.65;;
44116;SDS011;29781;49.480;8.512;2023-04-24T12:47:39;4.60;;;3.35;;
44116;SDS011;29781;49.480;8.512;2023-04-24T12:50:06;5.53;;;3.40;;
44116;SDS011;29781;49.480;8.512;2023-04-24T12:52:33;4.43;;;3.38;;
44116;SDS011;29781;49.480;8.512;2023-04-24T12:55:00;4.55;;;3.40;;
44116;SDS011;29781;49.480;8.512;2023-04-24T12:57:27;5.25;;;3.58;;
44116;SDS011;29781;49.480;8.512;2023-04-24T12:59:54;6.40;;;3.67;;
44116;SDS011;29781;49.480;8.512;2023-04-24T13:02:21;7.32;;;3.53;;
44116;SDS011;29781;49.480;8.512;2023-04-24T13:04:48;7.28;;;3.58;;
44116;SDS011;29781;49.480;8.512;2023-04-24T13:07:14;3.83;;;3.40;;
44116;SDS011;29781;49.480;8.512;2023-04-24T13:09:41;5.50;;;3.55;;
44116;SDS011;29781;49.480;8.512;2023-04-24T13:12:07;5.38;;;3.50;;
44116;SDS011;29781;49.480;8.512;2023-04-24T13:14:33;4.72;;;3.65;;
44116;SDS011;29781;49.480;8.512;2023-04-24T13:16:59;5.30;;;3.70;;
44116;SDS011;29781;49.480;8.512;2023-04-24T13:19:25;5.80;;;3.80;;
44116;SDS011;29781;49.480;8.512;2023-04-24T13:21:51;5.25;;;3.45;;
44116;SDS011;29781;49.480;8.512;2023-04-24T13:24:17;3.75;;;2.97;;
44116;SDS011;29781;49.480;8.512;2023-04-24T13:26:43;3.63;;;3.20;;
44116;SDS011;29781;49.480;8.512;2023-04-24T13:29:08;5.55;;;3.38;;
44116;SDS011;29781;49.480;8.512;2023-04-24T13:31:34;5.07;;;3.42;;
44116;SDS011;29781;49.480;8.512;2023-04-24T13:34:00;5.50;;;3.28;;
44116;SDS011;29781;49.480;8.512;2023-04-24T13:36:27;3.78;;;3.40;;
44116;SDS011;29781;49.480;8.512;2023-04-24T13:38:52;4.55;;;3.22;;
44116;SDS011;29781;49.480;8.512;2023-04-24T13:41:18;5.72;;;3.03;;
44116;SDS011;29781;49.480;8.512;2023-04-24T13:43:43;3.22;;;2.80;;
44116;SDS011;29781;49.480;8.512;2023-04-24T13:46:09;5.85;;;3.00;;
44116;SDS011;29781;49.480;8.512;2023-04-24T13:48:35;3.30;;;3.00;;
44116;SDS011;29781;49.480;8.512;2023-04-24T13:51:00;4.97;;;3.00;;
44116;SDS011;29781;49.480;8.512;2023-04-24T13:53:26;3.65;;;2.92;;
44116;SDS011;29781;49.480;8.512;2023-04-24T13:55:51;3.65;;;2.80;;
44116;SDS011;29781;49.480;8.512;2023-04-24T13:58:17;6.20;;;3.28;;
44116;SDS011;29781;49.480;8.512;2023-04-24T14:00:42;3.83;;;3.13;;
44116;SDS011;29781;49.480;8.512;2023-04-24T14:03:08;3.88;;;2.95;;
44116;SDS011;29781;49.480;8.512;2023-04-24T14:05:33;4.00;;;3.00;;
44116;SDS011;29781;49.480;8.512;2023-04-24T14:07:59;3.83;;;3.30;;
44116;SDS011;29781;49.480;8.512;2023-04-24T14:10:24;4.65;;;3.33;;
44116;SDS011;29781;49.480;8.512;2023-04-24T14:12:52;3.58;;;3.28;;
44116;SDS011;29781;49.480;8.512;2023-04-24T14:15:18;5.15;;;3.10;;
44116;SDS011;29781;49.480;8.512;2023-04-24T14:17:43;3.45;;;3.08;;
44116;SDS011;29781;49.480;8.512;2023-04-24T14:20:09;3.22;;;2.92;;
44116;SDS011;29781;49.480;8.512;2023-04-24T14:22:37;5.35;;;3.22;;
44116;SDS011;29781;49.480;8.512;2023-04-24T14:25:03;4.97;;;2.67;;
44116;SDS011;29781;49.480;8.512;2023-04-24T14:27:30;5.05;;;3.17;;
44116;SDS011;29781;49.480;8.512;2023-04-24T14:29:57;3.38;;;3.05;;
44116;SDS011;29781;49.480;8.512;2023-04-24T14:32:22;5.70;;;3.40;;
44116;SDS011;29781;49.480;8.512;2023-04-24T14:34:48;3.78;;;3.47;;
44116;SDS011;29781;49.480;8.512;2023-04-24T14:37:13;5.68;;;3.58;;
44116;SDS011;29781;49.480;8.512;2023-04-24T14:39:39;3.95;;;3.25;;
44116;SDS011;29781;49.480;8.512;2023-04-24T14:42:05;6.30;;;3.58;;
44116;SDS011;29781;49.480;8.512;2023-04-24T14:44:30;5.82;;;3.05;;
44116;SDS011;29781;49.480;8.512;2023-04-24T14:46:57;3.45;;;3.15;;
44116;SDS011;29781;49.480;8.512;2023-04-24T14:49:23;6.82;;;3.40;;
44116;SDS011;29781;49.480;8.512;2023-04-24T14:51:49;4.10;;;2.63;;